Terminal Aerodrome Forecast
Issued by NWS

Home | Current Version | Previous Version | Text Only | Print | Product List | Glossary On
Versions: 1 2 3 4 5 6 7 8 9 10 11 12 13 14 15 16 17 18 19 20 21 22 23 24 25
000
FTUS43 KDLH 251600 AAA
TAFBRD
TAF AMD
KBRD 251627Z 2516/2612 05007KT P6SM SCT020
      TEMPO 2516/2520 BKN020
     FM252100 17003KT P6SM SCT025 OVC250
     FM260300 19008KT 6SM -SN BKN015
     FM260700 20010G20KT 5SM -SN OVC008=

USA.gov is the U.S. government's official web portal to all federal, state and local government web resources and services.